Time;durP1;ratioP1;P1;durP2;ratioP2;P2;SDS_P1;SDS_P2;PMS_P1;PMS_P2;Temp;Humidity;BMP_temperature;BMP_pressure;BME280_temperature;BME280_humidity;BME280_pressure;Samples;Min_cycle;Max_cycle;Signal;HPM_P1;HPM_P2
2022/03/10 00:02:08;;;;;;;28.23;16.63;;;1.50;90.60;;;;;;6129223;23;20160;-84
2022/03/10 00:04:34;;;;;;;29.00;17.23;;;1.50;91.00;;;;;;6141565;23;20525;-84
2022/03/10 00:07:02;;;;;;;25.47;16.03;;;1.60;91.10;;;;;;6126212;23;20396;-85
2022/03/10 00:09:28;;;;;;;24.10;16.30;;;1.60;91.50;;;;;;6124905;23;20411;-85
2022/03/10 00:11:54;;;;;;;25.53;16.23;;;1.50;91.40;;;;;;6125070;23;20402;-85
2022/03/10 00:14:19;;;;;;;26.53;16.67;;;1.50;91.50;;;;;;6127858;23;20610;-85
2022/03/10 00:16:45;;;;;;;27.13;16.00;;;1.50;91.60;;;;;;6128742;23;20172;-85
2022/03/10 00:19:12;;;;;;;27.80;16.47;;;1.50;91.70;;;;;;6128353;23;20721;-86
2022/03/10 00:21:38;;;;;;;29.23;17.43;;;1.50;91.60;;;;;;6127466;23;20175;-87
2022/03/10 00:24:05;;;;;;;29.60;18.10;;;1.40;91.30;;;;;;6122400;23;20915;-87
2022/03/10 00:26:30;;;;;;;28.73;16.70;;;1.40;91.30;;;;;;6126604;23;20399;-87
2022/03/10 00:28:56;;;;;;;28.33;17.37;;;1.40;91.10;;;;;;6131179;23;20462;-86
2022/03/10 00:31:24;;;;;;;26.37;17.70;;;1.40;91.60;;;;;;6133088;23;20259;-87
2022/03/10 00:33:49;;;;;;;30.90;18.07;;;1.20;91.80;;;;;;6126050;23;20885;-87
2022/03/10 00:36:15;;;;;;;23.87;15.77;;;1.20;91.50;;;;;;6124435;23;20239;-87
2022/03/10 00:38:42;;;;;;;32.03;18.40;;;1.20;91.90;;;;;;6125492;23;20222;-87
2022/03/10 00:41:09;;;;;;;27.93;15.80;;;1.20;92.00;;;;;;6130952;23;20388;-86
2022/03/10 00:43:35;;;;;;;25.53;16.50;;;1.30;92.00;;;;;;6139612;23;21012;-86
2022/03/10 00:46:01;;;;;;;25.00;16.57;;;1.30;92.30;;;;;;6132929;23;20502;-87
2022/03/10 00:48:26;;;;;;;29.03;16.07;;;1.30;92.20;;;;;;6127378;23;20395;-86
2022/03/10 00:50:52;;;;;;;28.93;16.70;;;1.30;91.70;;;;;;6127160;23;20446;-86
2022/03/10 00:53:17;;;;;;;28.93;16.53;;;1.30;92.30;;;;;;6127960;23;20179;-86
2022/03/10 00:55:43;;;;;;;28.40;17.40;;;1.30;92.30;;;;;;6127538;23;20182;-87
2022/03/10 00:58:08;;;;;;;32.43;19.17;;;1.20;92.10;;;;;;6127143;23;20172;-86
2022/03/10 01:00:34;;;;;;;29.60;18.00;;;1.30;92.10;;;;;;6132084;23;20180;-86
2022/03/10 01:02:59;;;;;;;31.10;18.80;;;1.30;92.00;;;;;;6143401;23;20196;-86
2022/03/10 01:05:25;;;;;;;31.10;17.60;;;1.20;91.80;;;;;;6134951;23;20175;-87
2022/03/10 01:07:51;;;;;;;30.67;18.10;;;1.20;92.30;;;;;;6127083;23;20423;-86
2022/03/10 01:10:17;;;;;;;30.13;18.57;;;1.20;92.20;;;;;;6127478;23;20191;-86
2022/03/10 01:12:45;;;;;;;30.83;17.20;;;1.30;91.60;;;;;;6128100;23;20168;-85
2022/03/10 01:15:16;;;;;;;31.57;18.00;;;1.30;91.00;;;;;;6126091;23;20926;-85
2022/03/10 01:17:42;;;;;;;27.07;16.83;;;1.30;91.10;;;;;;6129353;23;20560;-86
2022/03/10 01:20:08;;;;;;;26.30;17.27;;;1.20;91.10;;;;;;6130957;23;20498;-85
2022/03/10 01:22:34;;;;;;;29.87;17.40;;;1.20;90.50;;;;;;6131940;23;20749;-85
2022/03/10 01:25:00;;;;;;;27.33;16.73;;;1.20;90.70;;;;;;6131312;23;20434;-86
2022/03/10 01:27:26;;;;;;;24.13;15.37;;;1.20;90.30;;;;;;6144075;23;20863;-86
2022/03/10 01:30:00;;;;;;;27.50;16.10;;;1.20;90.30;;;;;;6137380;23;21064;-86
2022/03/10 01:32:28;;;;;;;29.63;15.47;;;1.20;90.60;;;;;;6133418;23;20160;-86
2022/03/10 01:34:54;;;;;;;23.17;14.63;;;1.20;90.90;;;;;;6131481;23;20534;-86
2022/03/10 01:37:20;;;;;;;24.77;15.33;;;1.10;90.90;;;;;;6133377;23;20168;-86
2022/03/10 01:39:46;;;;;;;28.00;15.90;;;1.10;91.20;;;;;;6133839;23;20498;-85
2022/03/10 01:42:12;;;;;;;27.53;15.60;;;0.90;91.50;;;;;;6133705;23;20470;-85
2022/03/10 01:44:40;;;;;;;26.57;16.40;;;0.90;92.30;;;;;;6134668;23;20958;-85
2022/03/10 01:47:10;;;;;;;25.73;17.17;;;0.80;92.50;;;;;;6135301;23;20400;-85
2022/03/10 01:49:36;;;;;;;26.83;15.77;;;0.90;91.90;;;;;;6132318;23;20404;-85
2022/03/10 01:52:03;;;;;;;26.60;13.70;;;0.90;91.20;;;;;;6127890;23;20756;-86
2022/03/10 01:54:29;;;;;;;23.43;13.33;;;0.80;90.30;;;;;;6129286;23;20575;-86
2022/03/10 01:56:55;;;;;;;24.17;12.13;;;0.80;89.20;;;;;;6137567;23;20400;-86
2022/03/10 01:59:21;;;;;;;22.40;13.80;;;0.80;88.60;;;;;;6128979;23;20401;-86
2022/03/10 02:01:47;;;;;;;20.57;12.97;;;0.70;88.60;;;;;;6129418;23;20212;-86
2022/03/10 02:04:13;;;;;;;23.27;13.10;;;0.70;88.70;;;;;;6132752;23;20537;-86
2022/03/10 02:06:39;;;;;;;23.67;14.00;;;0.50;88.90;;;;;;6128461;23;20484;-86
2022/03/10 02:11:51;;;;;;;20.43;12.83;;;0.40;90.00;;;;;;6161093;23;20390;-86
2022/03/10 02:17:22;;;;;;;23.20;13.23;;;0.50;89.90;;;;;;6160962;23;20413;-85
2022/03/10 02:19:49;;;;;;;21.50;13.20;;;0.40;89.70;;;;;;6135279;23;20708;-86
2022/03/10 02:22:15;;;;;;;20.70;12.00;;;0.40;89.80;;;;;;6132901;23;20434;-85
2022/03/10 02:24:42;;;;;;;23.50;13.57;;;0.40;89.70;;;;;;6132548;23;20969;-86
2022/03/10 02:27:33;;;;;;;21.57;12.20;;;0.40;89.40;;;;;;6135273;23;20460;-86
2022/03/10 02:30:00;;;;;;;21.57;12.53;;;0.50;89.00;;;;;;6134166;23;20422;-86
2022/03/10 02:32:26;;;;;;;21.10;12.30;;;0.40;89.00;;;;;;6131754;23;20945;-86
2022/03/10 02:34:52;;;;;;;22.73;12.87;;;0.50;89.70;;;;;;6133065;23;21119;-86
2022/03/10 02:37:18;;;;;;;23.67;13.43;;;0.50;89.50;;;;;;6135508;23;20410;-86
2022/03/10 02:39:47;;;;;;;23.40;13.40;;;0.50;89.30;;;;;;6132168;23;20626;-87
2022/03/10 02:42:14;;;;;;;22.27;14.10;;;0.50;89.10;;;;;;6146671;23;20399;-87
2022/03/10 02:44:43;;;;;;;18.53;11.67;;;0.60;88.50;;;;;;6135401;23;20561;-86
2022/03/10 02:47:09;;;;;;;24.30;12.57;;;0.50;88.00;;;;;;6131348;23;20410;-86
2022/03/10 02:49:35;;;;;;;22.80;13.20;;;0.60;88.50;;;;;;6136001;23;20992;-85
2022/03/10 02:52:03;;;;;;;22.30;13.57;;;0.60;88.20;;;;;;6130711;23;20451;-86
2022/03/10 02:54:30;;;;;;;22.57;12.67;;;0.60;88.40;;;;;;6131768;23;20408;-87
2022/03/10 02:56:56;;;;;;;21.03;13.27;;;0.50;88.60;;;;;;6131743;23;20396;-86
2022/03/10 02:59:22;;;;;;;20.70;13.27;;;0.50;88.80;;;;;;6129651;23;20451;-86
2022/03/10 03:01:47;;;;;;;24.27;12.53;;;0.40;90.00;;;;;;6130746;23;20392;-86
2022/03/10 03:04:13;;;;;;;19.73;11.67;;;0.50;89.50;;;;;;6132675;23;20203;-86
2022/03/10 03:06:38;;;;;;;20.47;12.87;;;0.40;88.80;;;;;;6131867;23;20160;-85
2022/03/10 03:09:04;;;;;;;21.00;12.80;;;0.40;89.00;;;;;;6133082;23;20163;-86
2022/03/10 03:11:29;;;;;;;21.33;12.70;;;0.40;89.30;;;;;;6129216;23;20279;-86
2022/03/10 03:13:56;;;;;;;17.03;12.57;;;0.20;89.40;;;;;;6127583;23;20222;-86
2022/03/10 03:16:24;;;;;;;21.63;12.20;;;0.10;90.00;;;;;;6135891;23;20168;-85
2022/03/10 03:18:50;;;;;;;19.10;11.63;;;0.10;90.20;;;;;;6141832;23;20408;-85
2022/03/10 03:21:16;;;;;;;19.20;12.53;;;0.00;90.30;;;;;;6140353;23;20475;-86
2022/03/10 03:23:41;;;;;;;22.43;12.63;;;-0.10;90.70;;;;;;6134836;23;20944;-86
2022/03/10 03:26:07;;;;;;;18.77;12.90;;;-0.20;91.10;;;;;;6134714;23;20218;-86
2022/03/10 03:28:32;;;;;;;20.37;11.90;;;-0.40;91.50;;;;;;6136286;23;20166;-86
2022/03/10 03:30:58;;;;;;;23.30;13.00;;;-0.40;91.80;;;;;;6135676;23;20165;-86
2022/03/10 03:33:23;;;;;;;20.97;12.47;;;-0.40;92.10;;;;;;6133589;23;20288;-86
2022/03/10 03:35:49;;;;;;;21.17;13.17;;;-0.40;92.30;;;;;;6133073;23;20647;-86
2022/03/10 03:38:14;;;;;;;21.67;13.77;;;-0.40;92.30;;;;;;6133315;23;20894;-85
2022/03/10 03:40:40;;;;;;;19.70;12.40;;;-0.30;92.50;;;;;;6133659;23;20659;-86
2022/03/10 03:43:06;;;;;;;21.50;12.23;;;-0.30;92.60;;;;;;6134915;23;20594;-86
2022/03/10 03:45:32;;;;;;;21.10;13.40;;;-0.40;92.80;;;;;;6133858;23;20418;-86
2022/03/10 03:47:57;;;;;;;22.60;14.10;;;-0.30;93.10;;;;;;6134053;23;20503;-86
2022/03/10 03:50:23;;;;;;;25.23;14.40;;;-0.40;93.30;;;;;;6133292;23;20722;-86
2022/03/10 03:52:48;;;;;;;22.33;13.47;;;-0.50;93.60;;;;;;6133519;23;20160;-86
2022/03/10 03:55:14;;;;;;;23.40;12.97;;;-0.40;93.70;;;;;;6129483;23;20507;-87
2022/03/10 03:57:40;;;;;;;26.60;13.83;;;-0.50;93.70;;;;;;6133412;23;20164;-86
2022/03/10 04:00:08;;;;;;;23.87;13.27;;;-0.50;93.70;;;;;;6132762;23;20192;-86
2022/03/10 04:02:34;;;;;;;26.67;14.02;;;-0.60;93.80;;;;;;6141725;23;20426;-86
2022/03/10 04:04:59;;;;;;;19.43;11.70;;;-0.50;94.10;;;;;;6140435;23;20233;-85
2022/03/10 04:07:25;;;;;;;21.90;12.90;;;-0.50;93.90;;;;;;6131548;23;20395;-85
2022/03/10 04:09:50;;;;;;;19.63;12.20;;;-0.40;93.90;;;;;;6133475;23;20203;-85
2022/03/10 04:12:16;;;;;;;23.93;13.17;;;-0.40;93.70;;;;;;6131210;23;20164;-85
2022/03/10 04:14:41;;;;;;;26.33;13.70;;;-0.50;93.80;;;;;;6127663;23;20163;-85
2022/03/10 04:17:07;;;;;;;22.37;13.00;;;-0.50;93.90;;;;;;6130044;23;20160;-85
2022/03/10 04:19:33;;;;;;;22.17;13.00;;;-0.50;94.00;;;;;;6130091;23;20168;-86
2022/03/10 04:21:58;;;;;;;24.27;13.80;;;-0.40;94.00;;;;;;6130589;23;20539;-85
2022/03/10 04:24:24;;;;;;;25.87;13.37;;;-0.40;93.80;;;;;;6130153;23;20220;-86
2022/03/10 04:26:50;;;;;;;20.10;13.20;;;-0.50;93.80;;;;;;6131185;23;20152;-86
2022/03/10 04:29:16;;;;;;;26.77;14.07;;;-0.40;94.10;;;;;;6131963;23;20176;-85
2022/03/10 04:31:42;;;;;;;22.20;13.80;;;-0.40;94.00;;;;;;6129894;23;20535;-84
2022/03/10 04:34:08;;;;;;;21.70;14.30;;;-0.40;93.80;;;;;;6130177;23;20396;-84
2022/03/10 04:36:33;;;;;;;23.83;13.50;;;-0.40;94.00;;;;;;6133172;23;20891;-84
2022/03/10 04:38:59;;;;;;;23.63;14.70;;;-0.50;94.10;;;;;;6128930;23;20384;-84
2022/03/10 04:41:25;;;;;;;23.40;13.87;;;-0.30;94.10;;;;;;6130843;23;20172;-84
2022/03/10 04:43:50;;;;;;;20.73;12.07;;;-0.40;93.90;;;;;;6128944;23;20532;-84
2022/03/10 04:46:16;;;;;;;22.67;13.57;;;-0.30;94.00;;;;;;6128066;23;20175;-85
2022/03/10 04:48:42;;;;;;;24.50;13.43;;;-0.40;93.90;;;;;;6130085;23;20558;-84
2022/03/10 04:51:08;;;;;;;23.90;13.63;;;-0.40;94.00;;;;;;6128162;23;20164;-84
2022/03/10 04:53:34;;;;;;;22.03;12.80;;;-0.50;94.10;;;;;;6129337;23;20396;-85
2022/03/10 04:55:59;;;;;;;25.13;13.97;;;-0.50;94.40;;;;;;6130741;23;20184;-85
2022/03/10 04:58:25;;;;;;;24.50;13.47;;;-0.50;94.50;;;;;;6131737;23;20160;-85
2022/03/10 05:00:50;;;;;;;23.97;14.53;;;-0.50;94.60;;;;;;6085218;23;1055274;-87
2022/03/10 05:03:16;;;;;;;21.17;13.80;;;-0.50;94.80;;;;;;6129439;23;20217;-85
2022/03/10 05:05:42;;;;;;;25.93;13.53;;;-0.60;94.70;;;;;;6128356;23;20162;-86
2022/03/10 05:08:10;;;;;;;24.33;14.17;;;-0.50;94.70;;;;;;6129633;23;20164;-87
2022/03/10 05:10:36;;;;;;;24.00;14.10;;;-0.50;94.70;;;;;;6129956;23;20182;-87
2022/03/10 05:13:02;;;;;;;26.90;14.40;;;-0.50;94.60;;;;;;6129405;23;20907;-86
2022/03/10 05:15:32;;;;;;;20.87;13.20;;;-0.50;94.50;;;;;;6128411;23;20277;-86
2022/03/10 05:18:14;;;;;;;24.80;15.33;;;-0.60;94.70;;;;;;6149798;23;20842;-86
2022/03/10 05:20:40;;;;;;;23.50;14.27;;;-0.50;94.70;;;;;;6131471;23;20419;-87
2022/03/10 05:23:06;;;;;;;23.80;15.13;;;-0.60;94.80;;;;;;6133050;23;20232;-88
2022/03/10 05:25:37;;;;;;;20.20;12.90;;;-0.60;95.30;;;;;;6132789;23;20215;-86
2022/03/10 05:28:03;;;;;;;22.77;13.77;;;-0.70;95.60;;;;;;6133532;23;20464;-87
2022/03/10 05:30:29;;;;;;;24.50;14.35;;;-0.80;96.00;;;;;;6132856;23;20167;-88
2022/03/10 05:32:57;;;;;;;25.07;14.30;;;-0.70;95.80;;;;;;6131797;23;20274;-88
2022/03/10 05:35:26;;;;;;;23.17;14.00;;;-0.70;95.70;;;;;;6129518;23;20530;-87
2022/03/10 05:37:52;;;;;;;22.35;12.60;;;-0.70;95.80;;;;;;6133610;23;20611;-86
2022/03/10 05:40:19;;;;;;;21.40;13.40;;;-0.70;95.90;;;;;;6133431;23;20183;-87
2022/03/10 05:42:46;;;;;;;26.20;14.00;;;-0.70;96.00;;;;;;6130796;23;20681;-85
2022/03/10 05:45:14;;;;;;;25.20;14.30;;;-0.60;95.80;;;;;;6128266;23;20762;-86
2022/03/10 05:47:41;;;;;;;22.40;14.30;;;-0.50;95.60;;;;;;6131773;23;20405;-85
2022/03/10 05:50:08;;;;;;;20.97;12.83;;;-0.60;95.60;;;;;;6130340;23;20732;-86
2022/03/10 05:52:36;;;;;;;24.63;14.90;;;-0.60;95.70;;;;;;6130368;23;20411;-84
2022/03/10 05:55:02;;;;;;;24.10;13.63;;;-0.60;95.70;;;;;;6130454;23;20172;-86
2022/03/10 05:57:28;;;;;;;26.30;13.63;;;-0.60;95.50;;;;;;6129886;23;20399;-86
2022/03/10 05:59:54;;;;;;;27.27;15.30;;;-0.60;95.60;;;;;;6128581;23;20679;-85
2022/03/10 06:02:20;;;;;;;21.73;13.35;;;-0.60;95.90;;;;;;6128635;23;20505;-86
2022/03/10 06:04:45;;;;;;;22.70;15.07;;;-0.50;95.90;;;;;;6131247;23;20196;-87
2022/03/10 06:07:12;;;;;;;23.27;13.77;;;-0.60;95.80;;;;;;6128971;23;20184;-85
2022/03/10 06:09:38;;;;;;;25.45;15.00;;;-0.60;96.00;;;;;;6132615;23;20408;-88
2022/03/10 06:12:05;;;;;;;23.57;13.70;;;-0.70;96.60;;;;;;6127353;23;20184;-87
2022/03/10 06:14:31;;;;;;;21.70;14.52;;;-0.70;96.60;;;;;;6129909;23;20405;-87
2022/03/10 06:16:58;;;;;;;23.60;14.43;;;-0.70;96.70;;;;;;6128802;23;20156;-88
2022/03/10 06:19:24;;;;;;;24.80;13.70;;;-0.80;96.60;;;;;;6128970;23;20149;-87
2022/03/10 06:21:51;;;;;;;21.60;13.10;;;-0.80;96.80;;;;;;6129632;23;20449;-89
2022/03/10 06:24:16;;;;;;;22.48;13.45;;;-0.70;96.80;;;;;;6133880;23;20687;-88
2022/03/10 06:26:43;;;;;;;21.00;13.00;;;-0.60;96.50;;;;;;6130519;23;20184;-88
2022/03/10 06:29:13;;;;;;;22.75;13.98;;;-0.50;96.10;;;;;;6129427;23;20161;-89
2022/03/10 06:31:39;;;;;;;24.45;14.60;;;-0.40;95.70;;;;;;6163622;23;20161;-89
2022/03/10 06:34:05;;;;;;;23.85;14.15;;;-0.20;95.50;;;;;;6135254;23;20176;-89
2022/03/10 06:36:32;;;;;;;24.50;14.00;;;-0.10;95.20;;;;;;6134537;23;20308;-88
2022/03/10 06:38:58;;;;;;;28.10;16.48;;;0.00;94.90;;;;;;6111321;23;20590;-89
2022/03/10 06:41:25;;;;;;;21.90;14.27;;;-0.10;94.90;;;;;;6139562;23;20644;-89
2022/03/10 06:43:51;;;;;;;22.42;15.13;;;0.00;94.90;;;;;;6135215;23;20237;-89
2022/03/10 06:46:18;;;;;;;25.60;15.40;;;0.00;95.00;;;;;;6163666;23;20153;-89
2022/03/10 06:48:46;;;;;;;28.83;17.20;;;0.10;94.80;;;;;;6136842;23;20485;-89
2022/03/10 06:51:32;;;;;;;24.83;15.00;;;0.20;94.60;;;;;;6159416;23;20164;-87
2022/03/10 06:54:03;;;;;;;25.80;13.03;;;0.30;94.70;;;;;;6135694;23;20438;-89
2022/03/10 06:56:29;;;;;;;24.83;14.70;;;0.40;94.40;;;;;;6147325;23;20244;-88
2022/03/10 06:58:55;;;;;;;30.93;18.20;;;0.60;94.00;;;;;;6140149;23;21278;-88
2022/03/10 07:01:20;;;;;;;21.23;13.90;;;0.70;93.60;;;;;;6131643;23;20161;-88
2022/03/10 07:03:51;;;;;;;23.63;15.33;;;0.80;93.30;;;;;;6137226;23;20283;-95
2022/03/10 07:06:18;;;;;;;26.27;14.27;;;0.80;93.30;;;;;;6143858;23;20531;-90
2022/03/10 07:08:44;;;;;;;24.93;14.30;;;0.90;93.30;;;;;;6164656;22;20489;-92
2022/03/10 07:11:10;;;;;;;20.43;13.90;;;1.00;92.90;;;;;;6141724;23;20493;-92
2022/03/10 07:13:36;;;;;;;22.70;13.97;;;1.10;92.70;;;;;;6141552;23;20168;-91
2022/03/10 07:16:02;;;;;;;23.90;14.37;;;1.30;92.20;;;;;;6151284;23;20195;-94
2022/03/10 07:18:29;;;;;;;21.43;13.67;;;1.50;91.90;;;;;;6152526;23;20412;-92
2022/03/10 07:21:02;;;;;;;25.23;15.30;;;1.50;91.60;;;;;;6151857;23;20475;-93
2022/03/10 07:23:28;;;;;;;24.10;13.93;;;1.70;91.80;;;;;;6153301;23;20849;-93
2022/03/10 07:25:54;;;;;;;26.23;14.67;;;1.80;91.50;;;;;;6147967;23;20396;-92
2022/03/10 07:28:19;;;;;;;19.23;13.30;;;2.00;91.20;;;;;;6143060;23;20235;-90
2022/03/10 07:30:45;;;;;;;20.70;14.57;;;2.10;90.50;;;;;;6149653;23;20399;-90
2022/03/10 07:33:11;;;;;;;24.63;14.90;;;2.10;90.40;;;;;;6155886;23;20176;-85
2022/03/10 07:35:37;;;;;;;20.73;13.10;;;2.20;90.20;;;;;;6140214;23;20898;-87
2022/03/10 07:38:02;;;;;;;24.20;14.00;;;2.30;90.30;;;;;;6136609;23;20327;-89
2022/03/10 07:40:28;;;;;;;22.37;14.10;;;2.40;90.10;;;;;;6134030;23;20171;-86
2022/03/10 07:42:54;;;;;;;27.07;17.47;;;2.50;89.90;;;;;;6134599;23;20795;-87
2022/03/10 07:45:23;;;;;;;24.37;15.70;;;2.70;89.70;;;;;;6135043;23;20172;-88
2022/03/10 07:47:58;;;;;;;27.93;15.67;;;2.80;88.00;;;;;;6114343;23;20438;-90
2022/03/10 07:50:24;;;;;;;24.83;15.93;;;2.80;87.00;;;;;;6128542;23;20415;-86
2022/03/10 07:52:50;;;;;;;21.07;14.10;;;2.80;88.20;;;;;;6131215;23;20387;-89
2022/03/10 07:55:15;;;;;;;23.77;15.03;;;3.00;87.30;;;;;;6150381;23;20406;-94
2022/03/10 07:57:44;;;;;;;20.73;15.77;;;3.30;87.80;;;;;;6152918;23;20646;-93
2022/03/10 08:00:13;;;;;;;26.50;15.57;;;3.40;85.90;;;;;;6148608;23;20207;-93
2022/03/10 08:02:40;;;;;;;20.63;14.00;;;3.60;86.10;;;;;;6119551;23;20403;-91
2022/03/10 08:05:10;;;;;;;21.67;13.87;;;3.90;85.10;;;;;;6165359;23;20410;-92
2022/03/10 08:07:36;;;;;;;24.03;13.47;;;4.10;84.10;;;;;;6131729;23;20489;-89
2022/03/10 08:10:04;;;;;;;19.03;13.87;;;4.30;83.70;;;;;;6133972;23;20523;-93
2022/03/10 08:12:53;;;;;;;24.10;14.93;;;4.60;83.20;;;;;;6161143;23;20166;-90
2022/03/10 08:15:21;;;;;;;23.90;16.40;;;5.00;81.70;;;;;;6136054;23;20743;-91
2022/03/10 08:17:50;;;;;;;25.53;16.10;;;5.40;80.10;;;;;;6173635;23;20940;-92
2022/03/10 08:20:16;;;;;;;24.50;15.23;;;5.70;80.10;;;;;;6131316;23;20902;-87
2022/03/10 08:22:41;;;;;;;25.30;16.17;;;6.10;80.10;;;;;;6129438;23;20491;-86
2022/03/10 08:25:08;;;;;;;25.60;14.70;;;6.30;79.10;;;;;;6130373;23;20519;-87
2022/03/10 08:27:33;;;;;;;20.73;14.83;;;6.40;80.30;;;;;;6132145;23;20227;-86
2022/03/10 08:29:59;;;;;;;20.73;14.27;;;6.50;81.20;;;;;;6130756;23;20410;-86
2022/03/10 08:32:26;;;;;;;21.73;14.77;;;6.70;83.10;;;;;;6131336;23;20154;-85
2022/03/10 08:34:52;;;;;;;19.70;12.93;;;6.90;78.60;;;;;;6129490;23;20498;-84
2022/03/10 08:37:18;;;;;;;18.67;12.53;;;7.00;77.30;;;;;;6127960;23;20765;-83
2022/03/10 08:39:44;;;;;;;19.10;15.03;;;7.10;78.10;;;;;;6133013;23;20404;-85
2022/03/10 08:42:10;;;;;;;21.43;14.40;;;7.40;78.70;;;;;;6131888;23;20406;-84
2022/03/10 08:44:36;;;;;;;16.50;12.43;;;7.50;76.70;;;;;;6131612;23;20443;-84
2022/03/10 08:47:01;;;;;;;13.50;11.50;;;7.60;76.20;;;;;;6131650;23;20156;-88
2022/03/10 08:49:27;;;;;;;14.70;11.40;;;7.70;75.60;;;;;;6129620;23;20619;-84
2022/03/10 08:51:52;;;;;;;12.40;10.20;;;8.00;75.10;;;;;;6132400;23;20168;-84
2022/03/10 08:54:18;;;;;;;13.50;11.03;;;8.20;75.20;;;;;;6129206;23;20187;-84
2022/03/10 08:56:45;;;;;;;17.73;10.53;;;8.30;74.20;;;;;;6132893;23;20165;-85
2022/03/10 08:59:10;;;;;;;13.43;10.70;;;8.30;75.30;;;;;;6132356;23;20170;-85
2022/03/10 09:01:36;;;;;;;15.20;10.90;;;8.40;74.10;;;;;;6132102;23;20388;-86
2022/03/10 09:04:02;;;;;;;14.60;10.80;;;8.60;73.60;;;;;;6127785;23;20209;-84
2022/03/10 09:06:29;;;;;;;14.60;11.43;;;8.90;74.70;;;;;;6130519;23;20445;-86
2022/03/10 09:08:54;;;;;;;13.27;10.73;;;9.00;74.80;;;;;;6129860;23;21059;-86
2022/03/10 09:11:20;;;;;;;14.10;11.47;;;9.30;73.80;;;;;;6129137;23;20834;-86
2022/03/10 09:13:48;;;;;;;11.00;9.77;;;9.50;71.60;;;;;;6126963;23;20168;-86
2022/03/10 09:16:22;;;;;;;17.07;12.07;;;9.70;71.40;;;;;;6132606;23;20622;-86
2022/03/10 09:18:51;;;;;;;12.40;10.97;;;10.20;69.70;;;;;;6132066;23;20940;-87
2022/03/10 09:21:18;;;;;;;14.33;10.93;;;10.50;69.60;;;;;;6133018;23;20390;-86
2022/03/10 09:23:43;;;;;;;13.70;11.30;;;10.80;69.50;;;;;;6131951;23;21012;-84
2022/03/10 09:26:09;;;;;;;15.27;12.17;;;11.20;71.00;;;;;;6131238;23;20511;-85
2022/03/10 09:28:35;;;;;;;14.70;12.00;;;11.30;65.80;;;;;;6128713;23;20255;-86
2022/03/10 09:31:01;;;;;;;20.60;12.80;;;11.30;66.20;;;;;;6132317;23;20495;-93
2022/03/10 09:33:27;;;;;;;17.20;13.10;;;11.40;64.00;;;;;;6140096;23;20555;-91
2022/03/10 09:35:53;;;;;;;15.43;11.80;;;11.30;65.60;;;;;;6140907;23;20384;-94
2022/03/10 09:38:19;;;;;;;16.30;12.30;;;11.40;63.50;;;;;;6143489;23;20211;-93
2022/03/10 09:40:47;;;;;;;24.00;13.40;;;11.50;65.00;;;;;;6139541;23;20292;-93
2022/03/10 09:43:12;;;;;;;13.43;10.83;;;11.10;64.00;;;;;;6141422;23;20746;-93
2022/03/10 09:45:39;;;;;;;14.63;11.03;;;11.20;63.20;;;;;;6143733;23;20402;-94
2022/03/10 09:48:05;;;;;;;14.70;11.77;;;11.20;64.00;;;;;;6144154;23;20168;-94
2022/03/10 09:50:31;;;;;;;15.03;11.30;;;11.30;64.70;;;;;;6141333;23;20399;-94
2022/03/10 09:52:56;;;;;;;14.03;11.63;;;11.50;63.40;;;;;;6141823;23;20164;-94
2022/03/10 09:55:25;;;;;;;12.10;10.77;;;11.80;64.10;;;;;;6169578;23;20422;-95
2022/03/10 09:57:55;;;;;;;16.13;11.60;;;11.70;61.80;;;;;;6171833;23;20167;-94
2022/03/10 10:00:21;;;;;;;12.20;10.90;;;11.90;62.10;;;;;;6176197;23;20415;-96
2022/03/10 10:02:46;;;;;;;11.50;9.47;;;12.10;62.60;;;;;;6174161;23;20471;-96
2022/03/10 10:05:20;;;;;;;11.63;10.23;;;12.30;62.70;;;;;;6178077;23;20156;-96
2022/03/10 10:08:04;;;;;;;10.20;8.90;;;12.50;61.70;;;;;;6161426;23;20271;-93
2022/03/10 10:10:34;;;;;;;11.93;9.33;;;12.50;59.60;;;;;;6143586;23;20400;-93
2022/03/10 10:13:05;;;;;;;13.23;9.63;;;12.80;60.00;;;;;;6148873;23;20431;-96
2022/03/10 10:15:57;;;;;;;9.40;8.43;;;12.90;58.40;;;;;;6149437;23;20419;-94
2022/03/10 10:18:25;;;;;;;9.67;8.70;;;13.20;58.60;;;;;;6141648;23;20590;-95
2022/03/10 10:21:07;;;;;;;10.40;8.20;;;13.60;58.00;;;;;;6149182;23;20403;-94
2022/03/10 10:23:46;;;;;;;10.03;7.57;;;13.70;56.70;;;;;;6143094;23;20473;-91
2022/03/10 10:26:13;;;;;;;7.00;6.33;;;13.60;54.60;;;;;;6142038;23;20395;-93
2022/03/10 10:28:39;;;;;;;7.93;7.13;;;13.60;55.40;;;;;;6143244;23;20406;-90
2022/03/10 10:31:10;;;;;;;8.80;6.50;;;13.60;55.20;;;;;;6146079;23;20424;-93
2022/03/10 10:33:37;;;;;;;8.37;7.50;;;14.00;54.00;;;;;;6142548;23;20392;-93
2022/03/10 10:36:16;;;;;;;10.43;7.73;;;14.10;53.30;;;;;;6141829;23;20777;-93
2022/03/10 10:38:46;;;;;;;7.70;6.40;;;14.10;54.40;;;;;;6144797;23;20445;-94
2022/03/10 10:41:19;;;;;;;9.30;8.00;;;14.50;50.20;;;;;;6146009;23;20470;-94
2022/03/10 10:43:55;;;;;;;10.70;8.03;;;14.80;52.40;;;;;;6141472;23;20443;-93
2022/03/10 10:46:45;;;;;;;8.63;7.73;;;14.70;53.70;;;;;;6168834;23;20445;-94
2022/03/10 10:49:14;;;;;;;6.40;5.80;;;15.10;55.40;;;;;;6141209;23;20391;-94
2022/03/10 10:51:44;;;;;;;5.40;4.90;;;15.00;52.00;;;;;;6141592;23;20423;-95
2022/03/10 10:54:24;;;;;;;7.37;5.23;;;14.60;50.10;;;;;;6144157;23;20430;-94
2022/03/10 10:57:02;;;;;;;4.70;4.10;;;14.60;49.30;;;;;;6141266;23;20466;-94
2022/03/10 10:59:43;;;;;;;3.50;3.20;;;14.80;46.70;;;;;;6141001;23;20415;-92
2022/03/10 11:02:29;;;;;;;3.10;2.70;;;15.00;47.20;;;;;;6148068;23;20791;-93
2022/03/10 11:05:14;;;;;;;3.23;3.00;;;15.10;45.70;;;;;;6138295;23;20447;-95
2022/03/10 11:07:51;;;;;;;4.90;3.17;;;15.00;45.90;;;;;;6136045;23;20747;-94
2022/03/10 11:10:35;;;;;;;4.30;3.27;;;15.40;46.00;;;;;;6152373;23;20489;-91
2022/03/10 11:13:04;;;;;;;4.13;2.70;;;15.40;45.20;;;;;;6131832;23;20399;-93
2022/03/10 11:15:30;;;;;;;3.70;2.77;;;15.40;46.50;;;;;;6129330;23;20456;-91
2022/03/10 11:17:57;;;;;;;3.43;3.13;;;15.10;45.00;;;;;;6136037;23;20403;-92
2022/03/10 11:20:24;;;;;;;3.40;2.93;;;14.90;45.60;;;;;;6132211;23;20483;-87
2022/03/10 11:23:14;;;;;;;2.90;2.70;;;15.30;45.00;;;;;;6130995;23;20506;-88
2022/03/10 11:25:53;;;;;;;2.97;2.67;;;16.00;46.70;;;;;;6133051;23;20890;-87
2022/03/10 11:28:27;;;;;;;4.17;3.77;;;16.10;45.50;;;;;;6130842;23;20482;-87
2022/03/10 11:30:56;;;;;;;4.33;3.97;;;16.00;45.10;;;;;;6129110;23;21214;-86
2022/03/10 11:33:32;;;;;;;5.10;3.50;;;15.80;44.70;;;;;;6126556;23;20392;-87
2022/03/10 11:35:58;;;;;;;3.20;2.90;;;15.80;44.80;;;;;;6127654;23;20929;-87
2022/03/10 11:38:52;;;;;;;3.53;2.80;;;16.00;44.80;;;;;;6127071;23;20474;-87
2022/03/10 11:41:18;;;;;;;3.40;3.10;;;16.30;41.60;;;;;;6148067;23;20399;-88
2022/03/10 11:43:59;;;;;;;3.53;3.23;;;16.20;43.30;;;;;;6124638;23;20450;-88
2022/03/10 11:46:29;;;;;;;3.33;3.03;;;16.10;45.10;;;;;;6125676;23;20390;-87
2022/03/10 11:49:15;;;;;;;3.30;2.43;;;16.10;42.50;;;;;;6128383;23;20964;-87
2022/03/10 11:51:44;;;;;;;3.17;2.87;;;16.20;44.00;;;;;;6128142;23;20942;-86
2022/03/10 11:54:11;;;;;;;2.63;2.43;;;16.40;43.70;;;;;;6124292;23;20384;-87
2022/03/10 11:56:43;;;;;;;3.70;2.70;;;16.20;43.90;;;;;;6124301;23;20430;-84
2022/03/10 11:59:19;;;;;;;4.93;2.60;;;16.40;39.90;;;;;;6123603;23;20403;-86
2022/03/10 12:01:45;;;;;;;3.37;3.07;;;16.70;40.00;;;;;;6125716;23;20429;-86
2022/03/10 12:04:18;;;;;;;3.80;3.03;;;16.70;45.00;;;;;;6126777;23;21283;-86
2022/03/10 12:06:55;;;;;;;3.50;3.20;;;16.70;42.80;;;;;;6127864;23;20387;-86
2022/03/10 12:09:33;;;;;;;4.00;3.30;;;16.70;45.50;;;;;;6124959;23;20394;-86
2022/03/10 12:12:21;;;;;;;4.27;3.50;;;16.90;44.50;;;;;;6125074;23;20387;-87
2022/03/10 12:14:47;;;;;;;3.70;3.10;;;16.90;42.60;;;;;;6124993;23;20424;-87
2022/03/10 12:17:44;;;;;;;3.03;2.50;;;16.90;43.10;;;;;;6124198;23;20434;-85
2022/03/10 12:20:15;;;;;;;3.80;2.70;;;17.20;39.40;;;;;;6127420;23;20724;-87
2022/03/10 12:23:03;;;;;;;3.60;3.30;;;17.50;39.10;;;;;;6126028;23;20406;-87
2022/03/10 12:25:36;;;;;;;3.80;3.40;;;17.20;39.00;;;;;;6125041;23;20898;-87
2022/03/10 12:28:01;;;;;;;3.60;3.30;;;16.90;40.00;;;;;;6127462;23;20404;-86
2022/03/10 12:30:41;;;;;;;3.07;2.73;;;16.50;42.80;;;;;;6126688;23;20395;-86
2022/03/10 12:33:09;;;;;;;5.07;3.23;;;16.60;42.30;;;;;;6127212;23;20442;-87
2022/03/10 12:35:42;;;;;;;4.73;3.90;;;16.50;40.40;;;;;;6123434;23;20693;-86
2022/03/10 12:38:08;;;;;;;4.50;3.40;;;16.90;42.70;;;;;;6124586;23;20409;-85
2022/03/10 12:40:51;;;;;;;4.07;3.77;;;17.10;42.00;;;;;;6123060;23;20400;-86
2022/03/10 12:43:26;;;;;;;4.47;3.73;;;17.10;41.20;;;;;;6120360;23;20537;-86
2022/03/10 12:45:52;;;;;;;4.17;3.87;;;17.10;41.40;;;;;;6119941;23;20403;-86
2022/03/10 12:48:59;;;;;;;5.03;3.63;;;17.10;41.20;;;;;;6120850;23;20482;-86